createdAt,value
2022-10-20T00:01:20.547Z,11.60
2022-10-20T00:03:48.840Z,11.46
2022-10-20T00:06:15.574Z,11.32
2022-10-20T00:08:43.505Z,11.34
2022-10-20T00:11:12.246Z,11.47
2022-10-20T00:13:40.442Z,11.17
2022-10-20T00:16:07.661Z,11.15
2022-10-20T00:18:34.714Z,11.25
2022-10-20T00:21:08.806Z,11.15
2022-10-20T00:23:36.565Z,11.47
2022-10-20T00:26:09.061Z,11.44
2022-10-20T00:28:35.892Z,11.53
2022-10-20T00:31:03.997Z,11.52
2022-10-20T00:33:30.836Z,11.47
2022-10-20T00:36:06.348Z,11.32
2022-10-20T00:38:34.213Z,11.44
2022-10-20T00:41:03.234Z,11.29
2022-10-20T00:43:58.866Z,11.26
2022-10-20T00:46:32.534Z,11.17
2022-10-20T00:49:08.806Z,11.05
2022-10-20T00:51:35.621Z,11.33
2022-10-20T00:54:08.974Z,11.30
2022-10-20T00:56:40.525Z,11.34
2022-10-20T00:59:09.308Z,11.21
2022-10-20T01:01:37.847Z,11.44
2022-10-20T01:04:05.010Z,11.25
2022-10-20T01:06:31.884Z,11.11
2022-10-20T01:08:58.906Z,11.02
2022-10-20T01:11:45.107Z,10.67
2022-10-20T01:14:20.667Z,10.95
2022-10-20T01:16:59.448Z,11.04
2022-10-20T01:20:04.201Z,11.12
2022-10-20T01:23:03.292Z,11.03
2022-10-20T01:25:35.749Z,11.13
2022-10-20T01:28:16.968Z,11.02
2022-10-20T01:30:53.319Z,11.06
2022-10-20T01:33:40.550Z,11.20
2022-10-20T01:36:28.555Z,10.78
2022-10-20T01:39:07.412Z,10.80
2022-10-20T01:41:42.448Z,11.04
2022-10-20T01:44:12.133Z,10.81
2022-10-20T01:46:42.118Z,10.73
2022-10-20T01:49:09.641Z,10.84
2022-10-20T01:51:36.580Z,10.83
2022-10-20T01:54:03.603Z,10.79
2022-10-20T01:56:56.026Z,10.99
2022-10-20T01:59:44.353Z,10.74
2022-10-20T02:02:33.283Z,10.71
2022-10-20T02:05:23.437Z,10.62
2022-10-20T02:07:50.940Z,11.37
2022-10-20T02:10:24.198Z,11.13
2022-10-20T02:12:56.729Z,10.82
2022-10-20T02:15:29.524Z,11.23
2022-10-20T02:18:01.477Z,11.21
2022-10-20T02:20:31.352Z,11.24
2022-10-20T02:23:00.123Z,11.13
2022-10-20T02:25:29.683Z,10.83
2022-10-20T02:30:31.342Z,10.97
2022-10-20T02:32:58.116Z,11.19
2022-10-20T02:35:31.578Z,11.43
2022-10-20T02:37:59.206Z,10.79
2022-10-20T02:40:26.954Z,11.31
2022-10-20T02:42:53.956Z,11.03
2022-10-20T02:45:20.829Z,11.08
2022-10-20T02:47:47.701Z,10.95
2022-10-20T02:50:14.568Z,10.92
2022-10-20T02:52:41.370Z,10.75
2022-10-20T02:55:08.474Z,10.61
2022-10-20T02:57:35.509Z,10.83
2022-10-20T03:00:02.564Z,10.91
2022-10-20T03:02:29.380Z,10.64
2022-10-20T03:04:56.179Z,10.23
2022-10-20T03:07:22.953Z,10.61
2022-10-20T03:09:49.734Z,10.52
2022-10-20T03:12:16.671Z,10.55
2022-10-20T03:14:43.420Z,10.90
2022-10-20T03:17:10.162Z,10.61
2022-10-20T03:19:36.928Z,10.57
2022-10-20T03:22:03.748Z,10.59
2022-10-20T03:24:30.512Z,10.81
2022-10-20T03:26:57.285Z,10.91
2022-10-20T03:29:24.159Z,10.66
2022-10-20T03:31:50.935Z,10.77
2022-10-20T03:34:17.661Z,10.77
2022-10-20T03:36:44.482Z,10.73
2022-10-20T03:39:11.286Z,10.64
2022-10-20T03:41:38.148Z,10.74
2022-10-20T03:44:05.061Z,10.43
2022-10-20T03:46:31.867Z,10.02
2022-10-20T03:48:58.728Z,10.28
2022-10-20T03:51:25.568Z,9.95
2022-10-20T03:53:52.708Z,10.07
2022-10-20T03:56:21.269Z,10.22
2022-10-20T03:58:48.417Z,10.12
2022-10-20T04:01:22.878Z,10.13
2022-10-20T04:03:49.651Z,10.09
2022-10-20T04:06:16.476Z,10.31
2022-10-20T04:08:43.653Z,10.00
2022-10-20T04:11:10.558Z,9.89
2022-10-20T04:13:37.366Z,10.19
2022-10-20T04:16:04.304Z,10.27
2022-10-20T04:18:31.655Z,9.83
2022-10-20T04:20:58.966Z,10.33
2022-10-20T04:23:25.750Z,10.19
2022-10-20T04:25:52.605Z,10.41
2022-10-20T04:28:21.015Z,10.10
2022-10-20T04:30:49.024Z,10.26
2022-10-20T04:33:16.690Z,10.02
2022-10-20T04:35:43.816Z,10.22
2022-10-20T04:38:10.736Z,10.00
2022-10-20T04:40:37.583Z,10.34
2022-10-20T04:43:04.354Z,10.28
2022-10-20T04:45:31.177Z,10.09
2022-10-20T04:47:57.973Z,10.05
2022-10-20T04:50:24.767Z,10.07
2022-10-20T04:53:07.977Z,10.00
2022-10-20T04:55:35.772Z,9.91
2022-10-20T04:58:03.269Z,10.26
2022-10-20T05:00:30.060Z,10.06
2022-10-20T05:02:57.074Z,10.11
2022-10-20T05:05:23.918Z,9.99
2022-10-20T05:07:50.664Z,10.07
2022-10-20T05:10:19.372Z,10.26
2022-10-20T05:12:46.147Z,10.05
2022-10-20T05:15:12.901Z,9.96
2022-10-20T05:17:39.652Z,10.20
2022-10-20T05:20:06.773Z,10.44
2022-10-20T05:22:33.806Z,10.11
2022-10-20T05:25:12.761Z,9.96
2022-10-20T05:27:47.630Z,10.14
2022-10-20T05:30:14.424Z,10.50
2022-10-20T05:32:41.654Z,10.24
2022-10-20T05:35:08.760Z,9.96
2022-10-20T05:37:35.562Z,9.82
2022-10-20T05:40:03.695Z,10.00
2022-10-20T05:42:30.541Z,9.88
2022-10-20T05:44:57.360Z,9.76
2022-10-20T05:47:24.149Z,9.49
2022-10-20T05:49:50.962Z,9.85
2022-10-20T05:52:17.776Z,9.93
2022-10-20T05:54:44.558Z,9.76
2022-10-20T05:57:11.354Z,9.77
2022-10-20T05:59:38.404Z,9.78
2022-10-20T06:02:05.238Z,9.80
2022-10-20T06:04:32.476Z,9.71
2022-10-20T06:06:59.277Z,9.93
2022-10-20T06:09:26.565Z,9.69
2022-10-20T06:11:53.445Z,9.76
2022-10-20T06:14:22.414Z,9.96
2022-10-20T06:16:53.581Z,10.22
2022-10-20T06:19:20.833Z,9.99
2022-10-20T06:21:49.322Z,10.05
2022-10-20T06:24:17.100Z,9.82
2022-10-20T06:26:45.024Z,9.91
2022-10-20T06:29:15.233Z,10.00
2022-10-20T06:31:50.267Z,10.00
2022-10-20T06:34:19.848Z,9.79
2022-10-20T06:36:47.285Z,9.88
2022-10-20T06:39:17.507Z,9.98
2022-10-20T06:41:48.522Z,9.80
2022-10-20T06:44:20.657Z,9.79
2022-10-20T06:46:47.807Z,10.08
2022-10-20T06:49:15.157Z,10.19
2022-10-20T06:51:41.974Z,10.17
2022-10-20T06:54:09.457Z,10.12
2022-10-20T06:56:37.467Z,10.03
2022-10-20T06:59:04.650Z,10.10
2022-10-20T07:01:33.538Z,9.99
2022-10-20T07:04:03.617Z,10.31
2022-10-20T07:06:33.703Z,10.38
2022-10-20T07:09:04.059Z,10.61
2022-10-20T07:11:31.878Z,10.77
2022-10-20T07:14:00.029Z,10.78
2022-10-20T07:16:30.539Z,10.84
2022-10-20T07:18:57.483Z,10.46
2022-10-20T07:21:30.822Z,10.42
2022-10-20T07:24:01.988Z,10.58
2022-10-20T07:26:31.739Z,10.68
2022-10-20T07:29:00.826Z,10.67
2022-10-20T07:31:32.085Z,10.58
2022-10-20T07:34:13.551Z,10.74
2022-10-20T07:36:47.493Z,10.68
2022-10-20T07:39:14.366Z,10.86
2022-10-20T07:41:44.045Z,10.75
2022-10-20T07:44:11.260Z,10.94
2022-10-20T07:46:38.057Z,10.87
2022-10-20T07:49:39.182Z,11.07
2022-10-20T07:51:51.591Z,10.90
2022-10-20T07:54:18.472Z,11.01
2022-10-20T07:56:46.304Z,10.78
2022-10-20T07:59:13.599Z,10.89
2022-10-20T08:01:40.910Z,11.27
2022-10-20T08:04:07.934Z,10.75
2022-10-20T08:06:34.812Z,11.20
2022-10-20T08:09:02.040Z,11.23
2022-10-20T08:11:29.102Z,11.03
2022-10-20T08:13:55.989Z,11.45
2022-10-20T08:19:24.202Z,11.48
2022-10-20T08:21:50.965Z,11.55
2022-10-20T08:24:17.835Z,11.15
2022-10-20T08:26:44.709Z,11.36
2022-10-20T08:29:12.411Z,10.99
2022-10-20T08:31:39.913Z,11.27
2022-10-20T08:34:07.141Z,11.55
2022-10-20T08:36:37.375Z,11.95
2022-10-20T08:39:06.236Z,11.90
2022-10-20T08:41:55.212Z,11.47
2022-10-20T08:44:34.556Z,11.92
2022-10-20T08:47:16.439Z,12.25
2022-10-20T08:49:45.800Z,11.53
2022-10-20T08:52:17.387Z,11.88
2022-10-20T08:54:44.498Z,12.11
2022-10-20T08:57:22.313Z,12.09
2022-10-20T08:59:52.449Z,12.10
2022-10-20T09:02:19.565Z,12.26
2022-10-20T09:04:51.887Z,12.22
2022-10-20T09:07:45.083Z,12.60
2022-10-20T09:10:26.428Z,12.84
2022-10-20T09:12:53.432Z,12.90
2022-10-20T09:15:21.463Z,12.84
2022-10-20T09:17:56.778Z,12.55
2022-10-20T09:20:26.137Z,12.75
2022-10-20T09:22:53.012Z,12.59
2022-10-20T09:25:25.240Z,13.00
2022-10-20T09:27:52.231Z,12.82
2022-10-20T09:30:34.503Z,12.85
2022-10-20T09:33:20.284Z,12.84
2022-10-20T09:35:48.910Z,12.94
2022-10-20T09:38:19.762Z,12.72
2022-10-20T09:40:58.201Z,12.96
2022-10-20T09:43:27.244Z,12.85
2022-10-20T09:45:58.582Z,13.26
2022-10-20T09:48:29.427Z,13.31
2022-10-20T09:50:58.806Z,13.30
2022-10-20T09:53:34.976Z,13.54
2022-10-20T09:56:02.120Z,13.10
2022-10-20T09:58:42.152Z,13.46
2022-10-20T10:01:12.401Z,13.37
2022-10-20T10:03:52.848Z,13.56
2022-10-20T10:06:38.012Z,13.53
2022-10-20T10:09:31.912Z,13.93
2022-10-20T10:12:01.722Z,14.05
2022-10-20T10:14:29.312Z,14.23
2022-10-20T10:16:56.626Z,14.30
2022-10-20T10:19:28.853Z,14.14
2022-10-20T10:21:58.496Z,13.67
2022-10-20T10:24:48.379Z,14.27
2022-10-20T10:27:28.545Z,13.95
2022-10-20T10:30:16.343Z,14.38
2022-10-20T10:32:47.739Z,14.28
2022-10-20T10:35:26.618Z,14.41
2022-10-20T10:37:54.572Z,14.71
2022-10-20T10:41:09.002Z,14.58
2022-10-20T10:43:48.783Z,14.78
2022-10-20T10:46:28.545Z,15.22
2022-10-20T10:48:58.288Z,14.66
2022-10-20T10:51:40.116Z,14.91
2022-10-20T10:54:30.311Z,15.08
2022-10-20T10:57:03.531Z,15.43
2022-10-20T10:59:35.894Z,15.21
2022-10-20T11:02:31.829Z,15.25
2022-10-20T11:05:20.421Z,15.48
2022-10-20T11:08:01.594Z,15.48
2022-10-20T11:10:45.378Z,16.15
2022-10-20T11:13:40.102Z,15.95
2022-10-20T11:16:09.741Z,16.22
2022-10-20T11:19:11.220Z,16.00
2022-10-20T11:21:53.326Z,15.89
2022-10-20T11:24:36.240Z,16.48
2022-10-20T11:27:16.823Z,16.20
2022-10-20T11:29:57.626Z,15.82
2022-10-20T11:32:45.725Z,16.17
2022-10-20T11:35:45.298Z,16.25
2022-10-20T11:38:25.673Z,16.67
2022-10-20T11:41:08.393Z,16.81
2022-10-20T11:43:46.263Z,16.44
2022-10-20T11:46:19.903Z,16.66
2022-10-20T11:48:51.126Z,17.10
2022-10-20T11:51:30.096Z,17.19
2022-10-20T11:53:59.822Z,16.83
2022-10-20T11:56:49.110Z,16.43
2022-10-20T11:59:25.101Z,16.75
2022-10-20T12:02:29.521Z,16.31
2022-10-20T12:05:19.600Z,16.39
2022-10-20T12:08:24.820Z,16.70
2022-10-20T12:10:51.338Z,17.08
2022-10-20T12:13:47.401Z,16.17
2022-10-20T12:16:51.964Z,16.67
2022-10-20T12:19:22.870Z,16.96
2022-10-20T12:22:05.573Z,16.98
2022-10-20T12:24:44.253Z,16.71
2022-10-20T12:27:11.063Z,16.57
2022-10-20T12:29:37.864Z,17.15
2022-10-20T12:32:29.025Z,17.21
2022-10-20T12:35:16.662Z,17.24
2022-10-20T12:37:55.844Z,17.17
2022-10-20T12:40:31.063Z,16.97
2022-10-20T12:42:59.141Z,16.65
2022-10-20T12:45:36.055Z,16.44
2022-10-20T12:48:04.422Z,16.24
2022-10-20T12:50:42.140Z,16.86
2022-10-20T12:53:18.150Z,16.96
2022-10-20T12:55:53.762Z,17.01
2022-10-20T12:58:20.550Z,16.99
2022-10-20T13:00:47.333Z,16.81
2022-10-20T13:03:32.453Z,16.94
2022-10-20T13:06:00.363Z,17.04
2022-10-20T13:08:33.570Z,16.75
2022-10-20T13:11:38.197Z,16.27
2022-10-20T13:14:27.061Z,16.19
2022-10-20T13:17:15.806Z,16.25
2022-10-20T13:20:01.344Z,16.53
2022-10-20T13:22:51.273Z,16.61
2022-10-20T13:25:53.382Z,16.47
2022-10-20T13:28:24.170Z,16.69
2022-10-20T13:30:59.333Z,16.62
2022-10-20T13:34:03.339Z,16.50
2022-10-20T13:36:50.224Z,16.46
2022-10-20T13:39:52.040Z,16.55
2022-10-20T13:42:50.641Z,16.43
2022-10-20T13:45:35.757Z,16.31
2022-10-20T13:48:31.595Z,16.58
2022-10-20T13:51:18.372Z,16.51
2022-10-20T13:53:51.278Z,16.47
2022-10-20T13:56:18.116Z,16.03
2022-10-20T13:59:04.524Z,16.38
2022-10-20T14:01:35.174Z,16.02
2022-10-20T14:04:02.207Z,16.02
2022-10-20T14:06:37.617Z,16.00
2022-10-20T14:09:18.287Z,15.97
2022-10-20T14:11:53.221Z,15.94
2022-10-20T14:14:26.169Z,15.73
2022-10-20T14:17:05.955Z,15.97
2022-10-20T14:19:33.842Z,15.92
2022-10-20T14:22:15.628Z,15.67
2022-10-20T14:24:48.391Z,15.75
2022-10-20T14:27:33.412Z,15.65
2022-10-20T14:30:03.031Z,15.21
2022-10-20T14:32:32.053Z,15.45
2022-10-20T14:35:01.478Z,15.02
2022-10-20T14:37:35.658Z,15.28
2022-10-20T14:40:06.275Z,15.16
2022-10-20T14:42:33.741Z,15.32
2022-10-20T14:45:03.111Z,15.09
2022-10-20T14:47:39.145Z,15.25
2022-10-20T14:50:06.764Z,14.98
2022-10-20T14:52:38.744Z,15.12
2022-10-20T14:55:35.210Z,15.00
2022-10-20T14:58:02.700Z,15.08
2022-10-20T15:00:36.006Z,15.17
2022-10-20T15:03:07.148Z,15.37
2022-10-20T15:05:45.242Z,15.08
2022-10-20T15:08:24.847Z,15.18
2022-10-20T15:10:52.161Z,15.11
2022-10-20T15:13:25.038Z,14.97
2022-10-20T15:15:55.099Z,15.17
2022-10-20T15:18:24.023Z,15.30
2022-10-20T15:20:52.680Z,15.28
2022-10-20T15:23:26.881Z,15.37
2022-10-20T15:26:09.534Z,15.39
2022-10-20T15:28:44.199Z,15.26
2022-10-20T15:31:14.101Z,15.13
2022-10-20T15:33:41.640Z,15.36
2022-10-20T15:36:32.909Z,15.46
2022-10-20T15:39:00.777Z,15.47
2022-10-20T15:41:33.338Z,15.64
2022-10-20T15:44:14.275Z,15.54
2022-10-20T15:46:46.859Z,15.62
2022-10-20T15:49:14.200Z,15.56
2022-10-20T15:51:43.956Z,15.49
2022-10-20T15:54:16.107Z,14.86
2022-10-20T15:56:43.735Z,15.63
2022-10-20T15:59:10.756Z,15.50
2022-10-20T16:01:38.235Z,15.23
2022-10-20T16:04:18.930Z,15.86
2022-10-20T16:06:45.935Z,15.81
2022-10-20T16:09:15.778Z,15.49
2022-10-20T16:11:43.603Z,15.17
2022-10-20T16:14:10.718Z,15.59
2022-10-20T16:16:37.557Z,15.11
2022-10-20T16:19:05.145Z,15.49
2022-10-20T16:21:33.242Z,15.43
2022-10-20T16:24:01.122Z,15.66
2022-10-20T16:26:28.267Z,15.38
2022-10-20T16:28:55.118Z,15.73
2022-10-20T16:31:22.002Z,15.52
2022-10-20T16:33:48.943Z,15.39
2022-10-20T16:36:21.698Z,15.33
2022-10-20T16:38:48.601Z,15.49
2022-10-20T16:41:16.105Z,15.05
2022-10-20T16:43:45.308Z,15.38
2022-10-20T16:46:14.558Z,15.64
2022-10-20T16:48:43.838Z,15.62
2022-10-20T16:51:15.156Z,15.68
2022-10-20T16:53:42.437Z,15.58
2022-10-20T16:56:09.455Z,15.72
2022-10-20T16:58:36.341Z,15.83
2022-10-20T17:01:06.570Z,15.42
2022-10-20T17:03:33.918Z,15.38
2022-10-20T17:06:04.198Z,15.66
2022-10-20T17:08:32.075Z,15.22
2022-10-20T17:11:00.981Z,15.67
2022-10-20T17:13:29.428Z,15.58
2022-10-20T17:15:56.774Z,15.60
2022-10-20T17:18:24.119Z,15.74
2022-10-20T17:20:55.098Z,15.61
2022-10-20T17:23:23.024Z,15.96
2022-10-20T17:25:51.509Z,15.57
2022-10-20T17:28:18.350Z,15.42
2022-10-20T17:30:47.058Z,15.66
2022-10-20T17:33:14.172Z,15.72
2022-10-20T17:35:41.143Z,15.47
2022-10-20T17:38:08.025Z,15.73
2022-10-20T17:40:38.304Z,15.67
2022-10-20T17:43:05.475Z,16.04
2022-10-20T17:45:34.960Z,15.63
2022-10-20T17:48:04.982Z,15.79
2022-10-20T17:50:31.866Z,15.87
2022-10-20T17:53:02.241Z,15.81
2022-10-20T17:55:29.730Z,16.24
2022-10-20T17:57:56.648Z,16.00
2022-10-20T18:00:37.755Z,15.97
2022-10-20T18:03:10.402Z,15.67
2022-10-20T18:05:37.242Z,15.69
2022-10-20T18:08:04.150Z,15.82
2022-10-20T18:10:30.961Z,16.27
2022-10-20T18:12:58.285Z,16.05
2022-10-20T18:15:25.116Z,15.87
2022-10-20T18:17:51.925Z,16.04
2022-10-20T18:20:18.814Z,15.76
2022-10-20T18:22:45.609Z,15.96
2022-10-20T18:25:12.646Z,16.09
2022-10-20T18:27:39.543Z,15.77
2022-10-20T18:30:08.494Z,16.09
2022-10-20T18:32:36.582Z,15.96
2022-10-20T18:35:03.875Z,16.15
2022-10-20T18:37:30.750Z,16.32
2022-10-20T18:39:57.563Z,15.99
2022-10-20T18:42:24.486Z,16.37
2022-10-20T18:44:51.304Z,16.43
2022-10-20T18:47:18.171Z,16.16
2022-10-20T18:49:45.034Z,16.46
2022-10-20T18:52:12.183Z,15.97
2022-10-20T18:54:39.587Z,16.43
2022-10-20T18:57:06.494Z,16.92
2022-10-20T18:59:33.324Z,16.80
2022-10-20T19:02:00.107Z,16.55
2022-10-20T19:04:27.031Z,16.78
2022-10-20T19:06:53.969Z,16.96
2022-10-20T19:09:21.693Z,16.92
2022-10-20T19:14:17.572Z,16.91
2022-10-20T19:16:47.029Z,16.57
2022-10-20T19:19:14.041Z,16.53
2022-10-20T19:21:41.092Z,16.61
2022-10-20T19:24:14.596Z,16.76
2022-10-20T19:26:52.467Z,16.51
2022-10-20T19:29:29.703Z,16.22
2022-10-20T19:31:59.534Z,16.51
2022-10-20T19:34:30.563Z,16.62
2022-10-20T19:36:58.295Z,16.00
2022-10-20T19:39:32.578Z,16.41
2022-10-20T19:42:01.243Z,16.06
2022-10-20T19:44:28.618Z,16.06
2022-10-20T19:46:56.601Z,15.85
2022-10-20T19:49:24.351Z,16.04
2022-10-20T19:51:51.728Z,16.53
2022-10-20T19:54:18.942Z,16.19
2022-10-20T19:56:45.814Z,16.47
2022-10-20T19:59:12.733Z,16.53
2022-10-20T20:01:39.777Z,16.24
2022-10-20T20:04:07.003Z,16.35
2022-10-20T20:06:34.782Z,15.83
2022-10-20T20:09:05.177Z,16.18
2022-10-20T20:11:32.363Z,15.90
2022-10-20T20:14:08.132Z,16.09
2022-10-20T20:16:35.301Z,16.15
2022-10-20T20:19:02.487Z,16.13
2022-10-20T20:21:30.537Z,16.21
2022-10-20T20:24:02.198Z,16.39
2022-10-20T20:26:31.282Z,16.51
2022-10-20T20:28:59.071Z,16.14
2022-10-20T20:31:27.504Z,16.01
2022-10-20T20:33:56.639Z,16.24
2022-10-20T20:36:26.187Z,15.95
2022-10-20T20:38:55.122Z,15.57
2022-10-20T20:41:26.024Z,15.80
2022-10-20T20:43:52.856Z,15.78
2022-10-20T20:46:22.687Z,15.85
2022-10-20T20:48:50.601Z,16.04
2022-10-20T20:51:17.594Z,15.99
2022-10-20T20:53:44.413Z,15.96
2022-10-20T20:56:13.755Z,15.93
2022-10-20T20:58:41.964Z,15.86
2022-10-20T21:01:13.396Z,15.91
2022-10-20T21:03:40.293Z,15.84
2022-10-20T21:06:09.243Z,15.71
2022-10-20T21:08:38.314Z,15.47
2022-10-20T21:11:13.354Z,15.58
2022-10-20T21:13:41.679Z,15.84
2022-10-20T21:16:14.497Z,15.70
2022-10-20T21:18:43.818Z,15.57
2022-10-20T21:21:13.689Z,15.75
2022-10-20T21:23:41.040Z,15.62
2022-10-20T21:26:09.764Z,15.50
2022-10-20T21:28:37.036Z,15.66
2022-10-20T21:31:08.731Z,15.61
2022-10-20T21:33:36.975Z,15.77
2022-10-20T21:36:06.595Z,15.66
2022-10-20T21:38:35.982Z,15.73
2022-10-20T21:41:08.918Z,15.46
2022-10-20T21:43:37.706Z,15.24
2022-10-20T21:46:10.058Z,15.49
2022-10-20T21:51:19.892Z,15.49
2022-10-20T21:53:47.128Z,15.52
2022-10-20T21:56:14.754Z,15.44
2022-10-20T21:58:41.702Z,15.48
2022-10-20T22:01:26.274Z,15.47
2022-10-20T22:03:54.236Z,15.09
2022-10-20T22:06:24.222Z,15.06
2022-10-20T22:08:54.463Z,14.99
2022-10-20T22:11:26.951Z,15.07
2022-10-20T22:13:54.473Z,14.70
2022-10-20T22:16:24.105Z,15.27
2022-10-20T22:19:01.741Z,15.11
2022-10-20T22:21:29.629Z,14.64
2022-10-20T22:23:58.515Z,14.50
2022-10-20T22:26:26.991Z,14.81
2022-10-20T22:28:54.555Z,14.31
2022-10-20T22:31:23.132Z,14.11
2022-10-20T22:33:55.404Z,14.69
2022-10-20T22:36:23.330Z,14.31
2022-10-20T22:38:50.089Z,14.88
2022-10-20T22:41:17.154Z,15.04
2022-10-20T22:43:43.966Z,15.36
2022-10-20T22:46:10.789Z,15.28
2022-10-20T22:48:37.629Z,15.25
2022-10-20T22:51:06.204Z,15.52
2022-10-20T22:53:33.010Z,15.20
2022-10-20T22:56:12.041Z,15.58
2022-10-20T22:58:39.000Z,15.26
2022-10-20T23:01:10.376Z,15.45
2022-10-20T23:03:38.138Z,15.27
2022-10-20T23:06:14.331Z,15.44
2022-10-20T23:08:43.593Z,15.70
2022-10-20T23:11:11.330Z,15.26
2022-10-20T23:13:38.189Z,15.57
2022-10-20T23:16:05.262Z,15.79
2022-10-20T23:18:32.128Z,15.56
2022-10-20T23:20:58.898Z,15.49
2022-10-20T23:23:26.212Z,15.53
2022-10-20T23:25:53.312Z,15.29
2022-10-20T23:28:20.406Z,15.57
2022-10-20T23:30:47.739Z,15.50
2022-10-20T23:33:14.600Z,15.57
2022-10-20T23:35:41.338Z,15.60
2022-10-20T23:38:09.614Z,15.36
2022-10-20T23:40:37.878Z,15.16
2022-10-20T23:43:04.926Z,15.15
2022-10-20T23:45:34.117Z,15.49
2022-10-20T23:48:03.840Z,15.51
2022-10-20T23:50:30.659Z,15.67
2022-10-20T23:52:57.426Z,15.66
2022-10-20T23:55:24.189Z,15.81
2022-10-20T23:57:51.272Z,15.54
